createdAt,value
2023-02-15T00:10:58.621Z,99400
2023-02-15T00:22:58.643Z,99400
2023-02-15T00:34:58.613Z,99400
2023-02-15T00:46:58.846Z,99410
2023-02-15T00:58:58.687Z,99400
2023-02-15T01:10:58.613Z,99360
2023-02-15T01:22:58.673Z,99360
2023-02-15T01:34:58.701Z,99360
2023-02-15T01:46:58.746Z,99360
2023-02-15T01:58:58.743Z,99350
2023-02-15T02:10:58.812Z,99350
2023-02-15T02:22:58.648Z,99320
2023-02-15T02:34:58.680Z,99320
2023-02-15T02:46:58.710Z,99300
2023-02-15T02:58:58.662Z,99300
2023-02-15T03:10:58.619Z,99290
2023-02-15T03:22:58.661Z,99280
2023-02-15T03:34:58.638Z,99280
2023-02-15T03:46:58.648Z,99260
2023-02-15T03:58:58.718Z,99250
2023-02-15T04:10:58.621Z,99260
2023-02-15T04:22:58.613Z,99260
2023-02-15T04:34:58.705Z,99260
2023-02-15T04:46:58.620Z,99250
2023-02-15T04:58:58.742Z,99240
2023-02-15T05:10:58.678Z,99240
2023-02-15T05:22:58.610Z,99250
2023-02-15T05:34:58.704Z,99240
2023-02-15T05:46:58.680Z,99230
2023-02-15T05:58:58.634Z,99240
2023-02-15T06:10:58.706Z,99240
2023-02-15T06:22:58.761Z,99250
2023-02-15T06:34:58.627Z,99240
2023-02-15T06:46:58.631Z,99260
2023-02-15T06:58:58.651Z,99260
2023-02-15T07:10:58.637Z,99260
2023-02-15T07:22:58.668Z,99250
2023-02-15T07:34:58.704Z,99250
2023-02-15T07:46:58.681Z,99270
2023-02-15T07:58:58.693Z,99240
2023-02-15T08:10:58.616Z,99240
2023-02-15T08:22:58.702Z,99220
2023-02-15T08:34:58.729Z,99220
2023-02-15T08:46:58.703Z,99190
2023-02-15T08:58:58.663Z,99190
2023-02-15T09:10:58.699Z,99200
2023-02-15T09:22:59.974Z,99210
2023-02-15T09:34:58.646Z,99200
2023-02-15T09:46:58.625Z,99200
2023-02-15T09:58:59.052Z,99220
2023-02-15T10:10:58.629Z,99210
2023-02-15T10:22:59.786Z,99250
2023-02-15T10:34:58.716Z,99240
2023-02-15T10:46:58.619Z,99260
2023-02-15T10:59:00.705Z,99260
2023-02-15T11:10:58.619Z,99250
2023-02-15T11:22:58.702Z,99250
2023-02-15T11:34:59.091Z,99240
2023-02-15T11:46:58.673Z,99230
2023-02-15T11:58:58.704Z,99210
2023-02-15T12:10:58.619Z,99200
2023-02-15T12:22:58.622Z,99180
2023-02-15T12:35:01.309Z,99170
2023-02-15T12:46:58.699Z,99150
2023-02-15T12:58:58.706Z,99160
2023-02-15T13:10:58.633Z,99150
2023-02-15T13:22:58.664Z,99120
2023-02-15T13:34:58.735Z,99120
2023-02-15T13:46:58.661Z,99140
2023-02-15T13:58:58.717Z,99130
2023-02-15T14:10:58.620Z,99110
2023-02-15T14:22:58.651Z,99110
2023-02-15T14:34:58.705Z,99090
2023-02-15T14:46:58.664Z,99080
2023-02-15T14:58:58.695Z,99090
2023-02-15T15:10:58.618Z,99100
2023-02-15T15:22:58.610Z,99070
2023-02-15T15:34:58.677Z,99070
2023-02-15T15:46:58.624Z,99060
2023-02-15T15:58:58.682Z,99040
2023-02-15T16:10:58.729Z,99030
2023-02-15T16:22:58.617Z,99040
2023-02-15T16:34:58.688Z,99050
2023-02-15T16:46:58.790Z,99060
2023-02-15T16:58:58.716Z,99060
2023-02-15T17:10:58.613Z,99050
2023-02-15T17:22:58.617Z,99050
2023-02-15T17:34:58.659Z,99040
2023-02-15T17:46:58.617Z,99040
2023-02-15T17:58:58.692Z,99040
2023-02-15T18:10:58.616Z,99040
2023-02-15T18:22:58.702Z,99050
2023-02-15T18:34:58.737Z,99040
2023-02-15T18:46:58.668Z,99050
2023-02-15T18:58:58.625Z,99050
2023-02-15T19:10:58.647Z,99060
2023-02-15T19:22:58.721Z,99050
2023-02-15T19:34:58.693Z,99040
2023-02-15T19:46:58.705Z,99050
2023-02-15T19:58:58.708Z,99050
2023-02-15T20:10:58.620Z,99050
2023-02-15T20:22:58.626Z,99070
2023-02-15T20:34:58.623Z,99070
2023-02-15T20:46:58.817Z,99070
2023-02-15T20:58:58.744Z,99070
2023-02-15T21:11:00.702Z,99070
2023-02-15T21:22:58.692Z,99060
2023-02-15T21:34:58.681Z,99050
2023-02-15T21:46:58.728Z,99030
2023-02-15T21:58:58.619Z,99050
2023-02-15T22:10:58.626Z,99050
2023-02-15T22:22:58.705Z,99040
2023-02-15T22:34:58.702Z,99050
2023-02-15T22:46:58.616Z,99030
2023-02-15T22:58:58.670Z,99030
2023-02-15T23:10:58.633Z,99010
2023-02-15T23:22:58.619Z,99020
2023-02-15T23:34:58.658Z,99020
2023-02-15T23:46:58.709Z,99020
2023-02-15T23:58:58.613Z,99020
